Estación de Santa Rosa INIA
Ultimos registro cada 15 minutos 35
| N° | Estación | Fecha / Hora | Temperatura | Humedad | Lluvia | Velocidad | Dirección | Radiación | Presion |
| 35 | Santa Rosa INIA | 07-05-2026 08:30 | 4 | 0,6 | 0 | 0,3 | 115 | 55 | 1004 |
| 34 | Santa Rosa INIA | 07-05-2026 08:15 | 1,9 | 0,5 | 0 | 0 | 0 | 77 | 1004 |
| 33 | Santa Rosa INIA | 07-05-2026 08:00 | 0,7 | 0,6 | 0 | 0 | 0 | 34 | 1004 |
| 32 | Santa Rosa INIA | 07-05-2026 07:45 | 0,6 | 0,5 | 0 | 0 | 0 | 5 | 1004 |
| 31 | Santa Rosa INIA | 07-05-2026 07:30 | 0,9 | 0,4 | 0 | 0 | 0 | 1 | 1004 |
| 30 | Santa Rosa INIA | 07-05-2026 07:15 | 1 | 0,5 | 0 | 0 | 0 | 0 | 1004 |
| 29 | Santa Rosa INIA | 07-05-2026 07:00 | 1,3 | 0,6 | 0 | 0,3 | 116 | 1 | 1003 |
| 28 | Santa Rosa INIA | 07-05-2026 06:45 | 1,8 | 0,5 | 0 | 0,2 | 91 | 0 | 1003 |
| 27 | Santa Rosa INIA | 07-05-2026 06:30 | 2,2 | 0,4 | 0 | 0 | 0 | 0 | 1003 |
| 26 | Santa Rosa INIA | 07-05-2026 06:15 | 1,9 | 0,5 | 0 | 0 | 0 | 0 | 1003 |
| 25 | Santa Rosa INIA | 07-05-2026 06:00 | 2,3 | 0,6 | 0 | 0 | 0 | 1 | 1003 |
| 24 | Santa Rosa INIA | 07-05-2026 05:45 | 2,4 | 0,5 | 0 | 0,1 | 301 | 0 | 1003 |
| 23 | Santa Rosa INIA | 07-05-2026 05:30 | 2,8 | 0,4 | 0 | 0 | 0 | 0 | 1002 |
| 22 | Santa Rosa INIA | 07-05-2026 05:15 | 3,1 | 0,5 | 0 | 0 | 0 | 0 | 1002 |
| 21 | Santa Rosa INIA | 07-05-2026 05:00 | 3,5 | 0,5 | 0 | 0 | 0 | 1 | 1002 |
| 20 | Santa Rosa INIA | 07-05-2026 04:45 | 4 | 0,5 | 0 | 0 | 0 | 0 | 1002 |
| 19 | Santa Rosa INIA | 07-05-2026 04:30 | 4,2 | 0,5 | 0 | 0 | 0 | 0 | 1002 |
| 18 | Santa Rosa INIA | 07-05-2026 04:15 | 4,2 | 0,5 | 0 | 0,4 | 249 | 0 | 1002 |
| 17 | Santa Rosa INIA | 07-05-2026 04:00 | 4,5 | 0,6 | 0 | 0 | 0 | 1 | 1002 |
| 16 | Santa Rosa INIA | 07-05-2026 03:45 | 4,5 | 0,4 | 0 | 0 | 0 | 0 | 1002 |
| 15 | Santa Rosa INIA | 07-05-2026 03:30 | 5,1 | 100 | 0 | 0 | 0 | 0 | 1002 |
| 14 | Santa Rosa INIA | 07-05-2026 03:15 | 5,6 | 100 | 0 | 0 | 0 | 0 | 1002 |
| 13 | Santa Rosa INIA | 07-05-2026 03:00 | 5,3 | 100 | 0 | 0 | 0 | 1 | 1002 |
| 12 | Santa Rosa INIA | 07-05-2026 02:45 | 5,7 | 100 | 0 | 0 | 0 | 0 | 1002 |
| 11 | Santa Rosa INIA | 07-05-2026 02:30 | 6,8 | 100 | 0 | 0 | 280 | 0 | 1002 |
| 10 | Santa Rosa INIA | 07-05-2026 02:15 | 7,1 | 100 | 0 | 0,3 | 174 | 0 | 1001 |
| 9 | Santa Rosa INIA | 07-05-2026 02:00 | 7,5 | 100 | 0 | 1 | 171 | 1 | 1001 |
| 8 | Santa Rosa INIA | 07-05-2026 01:45 | 7,5 | 100 | 0 | 2,1 | 169 | 0 | 1001 |
| 7 | Santa Rosa INIA | 07-05-2026 01:30 | 7,2 | 100 | 0 | 1,8 | 193 | 0 | 1001 |
| 6 | Santa Rosa INIA | 07-05-2026 01:15 | 7,4 | 0,5 | 0 | 1,2 | 219 | 0 | 1001 |
| 5 | Santa Rosa INIA | 07-05-2026 01:00 | 7,5 | 0,6 | 0 | 1,3 | 219 | 1 | 1001 |
| 4 | Santa Rosa INIA | 07-05-2026 00:45 | 7,7 | 0,5 | 0 | 1,5 | 225 | 0 | 1001 |
| 3 | Santa Rosa INIA | 07-05-2026 00:30 | 8 | 0,5 | 0 | 1,4 | 225 | 0 | 1001 |
| 2 | Santa Rosa INIA | 07-05-2026 00:15 | 8,4 | 100 | 0 | 1,6 | 223 | 0 | 1001 |
| 1 | Santa Rosa INIA | 07-05-2026 00:00 | 8,6 | 100 | 0 | 0,9 | 237 | 1 | 1000 |